CQX weather

Chatham Municipal Airport
Chatham, Massachusetts, United States

Public forecast

Using degrees Fahrenheit for public forecast. Weather courtesy of forecast.io.

Current aviation weather report (METAR) for Chatham Municipal Airport

Retrieved 2019/12/07 02:52 UTC (49 minutes ago):

KCQX 070252Z AUTO 29012G20KT 10SM OVC065 08/01 A2994 RMK AO2 SLP142 60002 T00780011 53006

Closest aviation forecast (TAF) to Chatham Municipal Airport

Closest forecast is Barnstable Municipal Boardman Polando Field, 13.1 nm (24.3 km) W. Retrieved 2019-12-07 00:36 UTC (3 hours ago):

TAF KHYA 062333Z 0700/0724 23012G23KT P6SM -SHRA OVC040 FM070300 26010G17KT P6SM BKN040 FM070500 30012G25KT P6SM SCT040 FM070900 33010G20KT P6SM FEW250